createdAt,value
2024-04-14T00:00:16.293Z,5.18
2024-04-14T00:02:43.539Z,5.47
2024-04-14T00:05:10.702Z,5.40
2024-04-14T00:07:38.819Z,5.65
2024-04-14T00:10:06.621Z,5.30
2024-04-14T00:12:33.666Z,5.80
2024-04-14T00:15:00.715Z,5.78
2024-04-14T00:17:27.844Z,5.82
2024-04-14T00:19:55.512Z,5.13
2024-04-14T00:22:23.262Z,4.95
2024-04-14T00:24:50.457Z,5.78
2024-04-14T00:27:17.526Z,6.30
2024-04-14T00:29:44.596Z,5.32
2024-04-14T00:32:12.467Z,6.10
2024-04-14T00:34:39.648Z,6.03
2024-04-14T00:37:06.852Z,5.90
2024-04-14T00:39:33.969Z,5.57
2024-04-14T00:42:02.243Z,5.65
2024-04-14T00:44:29.424Z,5.63
2024-04-14T00:46:56.996Z,5.80
2024-04-14T00:49:25.550Z,5.60
2024-04-14T00:51:54.240Z,5.53
2024-04-14T00:54:22.834Z,5.28
2024-04-14T00:56:50.315Z,5.63
2024-04-14T00:59:17.964Z,5.22
2024-04-14T01:01:45.199Z,5.60
2024-04-14T01:04:12.435Z,5.47
2024-04-14T01:06:40.068Z,5.25
2024-04-14T01:09:10.081Z,5.75
2024-04-14T01:11:37.262Z,5.47
2024-04-14T01:14:06.736Z,6.07
2024-04-14T01:16:38.222Z,5.57
2024-04-14T01:19:06.278Z,5.20
2024-04-14T01:21:38.677Z,5.25
2024-04-14T01:24:06.344Z,4.93
2024-04-14T01:26:33.638Z,5.57
2024-04-14T01:29:00.721Z,6.15
2024-04-14T01:31:27.749Z,5.90
2024-04-14T01:33:55.010Z,5.63
2024-04-14T01:36:22.086Z,5.95
2024-04-14T01:38:49.198Z,6.18
2024-04-14T01:41:16.598Z,6.35
2024-04-14T01:43:43.779Z,5.88
2024-04-14T01:46:10.832Z,5.50
2024-04-14T01:48:37.991Z,6.20
2024-04-14T01:51:05.179Z,6.03
2024-04-14T01:53:32.321Z,5.53
2024-04-14T01:56:00.711Z,5.70
2024-04-14T01:58:28.356Z,5.95
2024-04-14T02:00:55.535Z,5.85
2024-04-14T02:03:22.890Z,6.20
2024-04-14T02:06:00.205Z,6.00
2024-04-14T02:08:28.238Z,6.05
2024-04-14T02:10:55.410Z,6.20
2024-04-14T02:13:22.495Z,5.90
2024-04-14T02:15:49.614Z,6.45
2024-04-14T02:18:16.823Z,6.15
2024-04-14T02:20:45.271Z,5.90
2024-04-14T02:23:12.377Z,6.20
2024-04-14T02:25:40.285Z,5.80
2024-04-14T02:28:07.574Z,6.30
2024-04-14T02:30:35.074Z,6.00
2024-04-14T02:33:02.491Z,6.05
2024-04-14T02:35:29.706Z,5.95
2024-04-14T02:37:56.847Z,6.10
2024-04-14T02:40:24.412Z,6.22
2024-04-14T02:42:51.593Z,5.97
2024-04-14T02:45:18.734Z,6.13
2024-04-14T02:47:46.037Z,5.45
2024-04-14T02:50:13.298Z,6.03
2024-04-14T02:52:40.324Z,6.13
2024-04-14T02:55:07.764Z,6.43
2024-04-14T02:57:35.082Z,6.05
2024-04-14T03:00:02.335Z,6.35
2024-04-14T03:02:29.343Z,6.43
2024-04-14T03:04:56.978Z,5.70
2024-04-14T03:07:24.077Z,6.25
2024-04-14T03:09:54.367Z,6.05
2024-04-14T03:12:21.676Z,5.88
2024-04-14T03:14:48.773Z,6.35
2024-04-14T03:17:15.803Z,6.40
2024-04-14T03:19:43.021Z,6.15
2024-04-14T03:22:10.043Z,6.70
2024-04-14T03:24:37.132Z,5.95
2024-04-14T03:27:04.519Z,6.18
2024-04-14T03:29:34.409Z,5.97
2024-04-14T03:32:01.625Z,6.40
2024-04-14T03:34:28.773Z,6.57
2024-04-14T03:36:56.884Z,6.30
2024-04-14T03:39:24.028Z,6.55
2024-04-14T03:41:51.437Z,5.75
2024-04-14T03:44:18.470Z,6.72
2024-04-14T03:46:45.534Z,5.85
2024-04-14T03:49:13.312Z,6.72
2024-04-14T03:51:43.662Z,5.97
2024-04-14T03:54:13.766Z,6.43
2024-04-14T03:56:41.361Z,6.45
2024-04-14T03:59:08.530Z,6.20
2024-04-14T04:01:36.949Z,5.85
2024-04-14T04:04:04.354Z,5.63
2024-04-14T04:06:31.589Z,7.15
2024-04-14T04:08:58.643Z,6.68
2024-04-14T04:11:25.800Z,6.90
2024-04-14T04:13:54.374Z,6.47
2024-04-14T04:16:21.746Z,6.43
2024-04-14T04:18:51.967Z,6.10
2024-04-14T04:21:19.348Z,6.32
2024-04-14T04:23:49.120Z,6.40
2024-04-14T04:26:16.220Z,6.63
2024-04-14T04:28:43.251Z,6.20
2024-04-14T04:31:14.153Z,6.20
2024-04-14T04:33:41.871Z,6.30
2024-04-14T04:36:09.471Z,6.03
2024-04-14T04:38:36.532Z,6.40
2024-04-14T04:41:04.714Z,6.10
2024-04-14T04:43:31.833Z,6.38
2024-04-14T04:45:59.102Z,5.95
2024-04-14T04:48:26.495Z,5.72
2024-04-14T04:50:53.720Z,5.90
2024-04-14T04:53:20.827Z,5.57
2024-04-14T04:55:48.731Z,5.45
2024-04-14T04:58:16.192Z,5.95
2024-04-14T05:00:55.441Z,6.18
2024-04-14T05:03:22.803Z,6.32
2024-04-14T05:06:01.690Z,5.82
2024-04-14T05:08:29.044Z,6.13
2024-04-14T05:10:57.495Z,4.97
2024-04-14T05:13:25.963Z,5.47
2024-04-14T05:15:53.824Z,5.35
2024-04-14T05:18:23.352Z,5.18
2024-04-14T05:20:50.620Z,5.47
2024-04-14T05:23:17.662Z,5.28
2024-04-14T05:25:50.166Z,5.32
2024-04-14T05:28:17.412Z,6.07
2024-04-14T05:30:44.555Z,4.95
2024-04-14T05:33:12.364Z,5.40
2024-04-14T05:35:39.671Z,5.28
2024-04-14T05:38:06.710Z,5.15
2024-04-14T05:40:33.832Z,5.68
2024-04-14T05:43:00.917Z,4.57
2024-04-14T05:45:30.072Z,4.80
2024-04-14T05:47:57.344Z,5.15
2024-04-14T05:50:24.547Z,4.70
2024-04-14T05:52:52.735Z,4.60
2024-04-14T05:55:20.389Z,4.65
2024-04-14T05:57:47.491Z,4.78
2024-04-14T06:00:14.568Z,4.60
2024-04-14T06:02:43.524Z,4.60
2024-04-14T06:05:10.844Z,4.70
2024-04-14T06:07:38.005Z,3.92
2024-04-14T06:10:05.630Z,4.38
2024-04-14T06:12:32.929Z,4.03
2024-04-14T06:15:00.656Z,4.00
2024-04-14T06:17:29.434Z,3.90
2024-04-14T06:19:57.658Z,3.60
2024-04-14T06:22:24.828Z,4.05
2024-04-14T06:24:52.028Z,4.13
2024-04-14T06:27:19.170Z,3.63
2024-04-14T06:29:46.307Z,3.92
2024-04-14T06:32:13.375Z,4.07
2024-04-14T06:34:40.615Z,3.33
2024-04-14T06:37:07.711Z,2.95
2024-04-14T06:39:35.025Z,3.13
2024-04-14T06:42:03.795Z,2.88
2024-04-14T06:44:30.869Z,3.80
2024-04-14T06:46:58.541Z,3.17
2024-04-14T06:49:25.605Z,3.10
2024-04-14T06:51:52.709Z,3.28
2024-04-14T06:54:19.772Z,2.92
2024-04-14T06:56:46.784Z,3.13
2024-04-14T06:59:13.937Z,3.10
2024-04-14T07:01:41.612Z,3.05
2024-04-14T07:04:08.875Z,2.90
2024-04-14T07:06:36.127Z,3.10
2024-04-14T07:09:03.176Z,2.33
2024-04-14T07:11:31.136Z,2.75
2024-04-14T07:13:58.197Z,3.28
2024-04-14T07:16:25.236Z,2.90
2024-04-14T07:18:52.350Z,2.72
2024-04-14T07:21:19.523Z,3.00
2024-04-14T07:23:46.580Z,3.15
2024-04-14T07:26:13.626Z,3.10
2024-04-14T07:28:41.133Z,2.72
2024-04-14T07:31:08.352Z,2.78
2024-04-14T07:33:36.939Z,2.70
2024-04-14T07:36:04.407Z,2.60
2024-04-14T07:38:31.738Z,2.33
2024-04-14T07:40:58.864Z,2.47
2024-04-14T07:43:26.202Z,2.55
2024-04-14T07:45:53.269Z,2.75
2024-04-14T07:48:20.675Z,2.55
2024-04-14T07:50:47.748Z,2.58
2024-04-14T07:53:16.341Z,2.88
2024-04-14T07:55:43.425Z,2.85
2024-04-14T07:58:10.637Z,3.05
2024-04-14T08:00:37.827Z,2.80
2024-04-14T08:03:05.189Z,2.53
2024-04-14T08:05:32.559Z,2.40
2024-04-14T08:07:59.742Z,2.53
2024-04-14T08:10:26.899Z,2.33
2024-04-14T08:12:53.928Z,2.33
2024-04-14T08:15:21.099Z,2.42
2024-04-14T08:17:48.185Z,2.72
2024-04-14T08:20:15.335Z,2.65
2024-04-14T08:22:42.893Z,2.33
2024-04-14T08:25:10.137Z,2.17
2024-04-14T08:27:37.260Z,2.47
2024-04-14T08:30:04.542Z,2.08
2024-04-14T08:32:31.938Z,2.17
2024-04-14T08:34:59.815Z,2.30
2024-04-14T08:37:27.588Z,2.10
2024-04-14T08:39:54.625Z,2.22
2024-04-14T08:42:21.839Z,2.38
2024-04-14T08:44:50.592Z,2.13
2024-04-14T08:47:22.274Z,2.20
2024-04-14T08:49:50.603Z,2.25
2024-04-14T08:52:19.392Z,2.10
2024-04-14T08:54:46.492Z,2.05
2024-04-14T08:57:15.187Z,2.20
2024-04-14T08:59:43.166Z,2.42
2024-04-14T09:02:12.369Z,2.28
2024-04-14T09:04:41.452Z,2.00
2024-04-14T09:07:08.769Z,2.05
2024-04-14T09:09:36.676Z,2.30
2024-04-14T09:12:03.931Z,1.98
2024-04-14T09:14:31.182Z,2.22
2024-04-14T09:16:58.372Z,2.05
2024-04-14T09:19:25.643Z,2.10
2024-04-14T09:21:53.924Z,2.17
2024-04-14T09:24:20.971Z,1.70
2024-04-14T09:26:48.059Z,2.08
2024-04-14T09:29:15.114Z,2.00
2024-04-14T09:31:42.410Z,1.58
2024-04-14T09:34:10.839Z,2.00
2024-04-14T09:36:39.055Z,1.75
2024-04-14T09:39:07.801Z,2.00
2024-04-14T09:41:37.453Z,1.42
2024-04-14T09:44:05.712Z,1.50
2024-04-14T09:46:33.883Z,1.90
2024-04-14T09:49:06.174Z,1.45
2024-04-14T09:51:37.112Z,1.40
2024-04-14T09:54:04.783Z,1.33
2024-04-14T09:56:32.111Z,1.42
2024-04-14T09:58:59.242Z,2.17
2024-04-14T10:01:33.450Z,1.40
2024-04-14T10:04:03.202Z,1.63
2024-04-14T10:06:31.704Z,1.27
2024-04-14T10:08:59.026Z,1.33
2024-04-14T10:11:26.317Z,1.58
2024-04-14T10:13:56.129Z,1.75
2024-04-14T10:16:24.639Z,1.13
2024-04-14T10:18:52.370Z,1.65
2024-04-14T10:21:23.542Z,1.30
2024-04-14T10:23:54.543Z,1.38
2024-04-14T10:26:21.951Z,1.42
2024-04-14T10:28:55.009Z,1.30
2024-04-14T10:31:37.123Z,1.50
2024-04-14T10:34:11.832Z,1.50
2024-04-14T10:36:44.402Z,1.60
2024-04-14T10:39:16.045Z,1.48
2024-04-14T10:41:43.236Z,1.40
2024-04-14T10:44:20.156Z,1.50
2024-04-14T10:46:50.474Z,1.70
2024-04-14T10:49:19.013Z,1.17
2024-04-14T10:51:46.211Z,1.23
2024-04-14T10:54:13.371Z,1.42
2024-04-14T10:56:40.434Z,1.60
2024-04-14T10:59:07.591Z,1.42
2024-04-14T11:01:35.105Z,1.33
2024-04-14T11:04:05.920Z,1.73
2024-04-14T11:06:33.512Z,1.50
2024-04-14T11:09:00.787Z,1.40
2024-04-14T11:11:28.162Z,1.15
2024-04-14T11:13:55.733Z,1.27
2024-04-14T11:16:22.968Z,1.45
2024-04-14T11:18:50.193Z,1.30
2024-04-14T11:21:21.011Z,1.58
2024-04-14T11:23:49.674Z,1.33
2024-04-14T11:26:16.997Z,1.67
2024-04-14T11:28:44.479Z,1.58
2024-04-14T11:31:11.680Z,1.40
2024-04-14T11:33:42.527Z,1.38
2024-04-14T11:36:12.999Z,1.70
2024-04-14T11:38:40.193Z,1.58
2024-04-14T11:41:07.724Z,1.33
2024-04-14T11:43:34.845Z,1.35
2024-04-14T11:46:02.025Z,1.70
2024-04-14T11:48:29.190Z,1.67
2024-04-14T11:50:56.456Z,1.63
2024-04-14T11:53:23.516Z,1.52
2024-04-14T11:55:50.607Z,1.88
2024-04-14T11:58:21.133Z,1.23
2024-04-14T12:00:48.599Z,1.33
2024-04-14T12:03:16.001Z,1.40
2024-04-14T12:05:43.043Z,1.52
2024-04-14T12:08:10.250Z,1.55
2024-04-14T12:10:37.547Z,1.38
2024-04-14T12:13:06.463Z,1.13
2024-04-14T12:15:33.706Z,1.50
2024-04-14T12:18:01.002Z,1.38
2024-04-14T12:20:28.333Z,1.50
2024-04-14T12:22:58.660Z,1.38
2024-04-14T12:25:27.235Z,1.55
2024-04-14T12:27:54.650Z,1.42
2024-04-14T12:30:26.887Z,1.45
2024-04-14T12:33:00.325Z,2.05
2024-04-14T12:35:27.424Z,1.75
2024-04-14T12:37:54.733Z,1.27
2024-04-14T12:40:21.909Z,1.15
2024-04-14T12:42:49.144Z,2.00
2024-04-14T12:45:16.516Z,1.45
2024-04-14T12:47:43.532Z,1.50
2024-04-14T12:50:10.686Z,1.23
2024-04-14T12:52:37.803Z,1.80
2024-04-14T12:55:05.250Z,1.60
2024-04-14T12:57:32.585Z,1.50
2024-04-14T12:59:59.616Z,1.33
2024-04-14T13:02:26.687Z,1.75
2024-04-14T13:04:53.811Z,1.80
2024-04-14T13:07:20.841Z,1.60
2024-04-14T13:09:48.116Z,1.15
2024-04-14T13:12:15.215Z,1.23
2024-04-14T13:14:42.382Z,1.70
2024-04-14T13:17:09.432Z,1.35
2024-04-14T13:19:36.487Z,1.50
2024-04-14T13:22:03.988Z,1.38
2024-04-14T13:24:31.211Z,1.50
2024-04-14T13:26:58.374Z,1.60
2024-04-14T13:29:25.646Z,1.50
2024-04-14T13:31:52.660Z,1.80
2024-04-14T13:34:20.122Z,1.70
2024-04-14T13:36:47.188Z,1.40
2024-04-14T13:39:14.446Z,1.55
2024-04-14T13:41:41.667Z,1.38
2024-04-14T13:44:08.787Z,1.88
2024-04-14T13:46:38.591Z,1.17
2024-04-14T13:49:05.976Z,1.77
2024-04-14T13:51:33.026Z,1.83
2024-04-14T13:54:00.147Z,1.52
2024-04-14T13:56:27.154Z,1.52
2024-04-14T13:58:54.388Z,1.70
2024-04-14T14:01:21.653Z,2.13
2024-04-14T14:03:48.816Z,1.70
2024-04-14T14:06:16.250Z,1.52
2024-04-14T14:08:43.306Z,1.63
2024-04-14T14:11:10.339Z,1.63
2024-04-14T14:13:37.526Z,1.55
2024-04-14T14:16:06.280Z,1.80
2024-04-14T14:18:33.542Z,1.73
2024-04-14T14:21:00.571Z,1.45
2024-04-14T14:23:27.576Z,1.60
2024-04-14T14:25:54.828Z,1.70
2024-04-14T14:28:21.928Z,1.83
2024-04-14T14:30:49.086Z,1.50
2024-04-14T14:33:37.217Z,1.42
2024-04-14T14:36:22.845Z,1.90
2024-04-14T14:38:49.941Z,1.38
2024-04-14T14:41:17.270Z,1.75
2024-04-14T14:43:44.616Z,2.00
2024-04-14T14:46:12.001Z,1.58
2024-04-14T14:48:40.781Z,1.55
2024-04-14T14:51:08.127Z,1.50
2024-04-14T14:53:35.240Z,1.80
2024-04-14T14:56:02.366Z,2.13
2024-04-14T14:58:29.448Z,1.77
2024-04-14T15:01:01.042Z,1.45
2024-04-14T15:03:28.163Z,2.00
2024-04-14T15:05:55.242Z,1.25
2024-04-14T15:08:22.404Z,1.70
2024-04-14T15:10:54.324Z,2.45
2024-04-14T15:13:22.911Z,1.75
2024-04-14T15:15:53.775Z,1.50
2024-04-14T15:18:21.822Z,1.80
2024-04-14T15:20:49.316Z,1.85
2024-04-14T15:23:19.859Z,1.67
2024-04-14T15:25:46.935Z,1.90
2024-04-14T15:28:24.917Z,1.50
2024-04-14T15:30:56.844Z,1.50
2024-04-14T15:33:24.006Z,1.58
2024-04-14T15:35:51.185Z,1.80
2024-04-14T15:38:18.541Z,2.08
2024-04-14T15:40:49.162Z,1.60
2024-04-14T15:43:19.025Z,1.63
2024-04-14T15:45:46.503Z,1.90
2024-04-14T15:48:13.767Z,1.60
2024-04-14T15:50:40.834Z,1.75
2024-04-14T15:53:08.445Z,1.77
2024-04-14T15:55:41.560Z,1.95
2024-04-14T15:58:08.790Z,2.28
2024-04-14T16:00:36.011Z,2.22
2024-04-14T16:03:03.346Z,1.77
2024-04-14T16:05:31.772Z,1.92
2024-04-14T16:07:58.982Z,2.38
2024-04-14T16:10:26.452Z,1.75
2024-04-14T16:12:53.503Z,1.95
2024-04-14T16:15:20.594Z,2.58
2024-04-14T16:17:47.696Z,2.15
2024-04-14T16:20:14.973Z,2.60
2024-04-14T16:22:42.233Z,1.98
2024-04-14T16:25:09.432Z,2.05
2024-04-14T16:27:37.154Z,3.75
2024-04-14T16:30:04.953Z,5.60
2024-04-14T16:32:32.196Z,3.30
2024-04-14T16:34:59.673Z,3.00
2024-04-14T16:37:26.763Z,2.85
2024-04-14T16:39:53.916Z,2.92
2024-04-14T16:42:20.958Z,3.35
2024-04-14T16:44:48.156Z,2.80
2024-04-14T16:47:15.184Z,2.25
2024-04-14T16:49:44.001Z,1.88
2024-04-14T16:52:11.834Z,2.35
2024-04-14T16:54:39.526Z,2.00
2024-04-14T16:57:07.983Z,2.13
2024-04-14T16:59:37.418Z,2.22
2024-04-14T17:02:05.070Z,2.30
2024-04-14T17:04:32.294Z,1.90
2024-04-14T17:07:01.409Z,2.15
2024-04-14T17:09:28.456Z,2.20
2024-04-14T17:11:55.465Z,1.90
2024-04-14T17:14:22.818Z,2.15
2024-04-14T17:16:49.919Z,1.83
2024-04-14T17:19:17.450Z,2.08
2024-04-14T17:21:44.609Z,2.00
2024-04-14T17:24:11.878Z,2.28
2024-04-14T17:26:38.912Z,4.40
2024-04-14T17:29:08.807Z,3.90
2024-04-14T17:31:37.650Z,4.80
2024-04-14T17:34:05.295Z,5.28
2024-04-14T17:36:32.330Z,5.30
2024-04-14T17:38:59.550Z,6.68
2024-04-14T17:41:26.613Z,8.00
2024-04-14T17:43:53.739Z,9.55
2024-04-14T17:46:20.787Z,9.70
2024-04-14T17:48:47.900Z,9.70
2024-04-14T17:51:15.099Z,8.30
2024-04-14T17:53:44.601Z,7.10
2024-04-14T17:56:11.656Z,6.40
2024-04-14T17:58:39.451Z,6.25
2024-04-14T18:01:06.638Z,6.63
2024-04-14T18:03:33.935Z,5.03
2024-04-14T18:06:01.064Z,4.20
2024-04-14T18:08:28.196Z,4.35
2024-04-14T18:10:55.229Z,4.63
2024-04-14T18:13:22.267Z,5.97
2024-04-14T18:15:49.691Z,5.88
2024-04-14T18:18:17.166Z,5.88
2024-04-14T18:20:47.493Z,7.00
2024-04-14T18:23:15.332Z,7.00
2024-04-14T18:25:42.376Z,7.35
2024-04-14T18:28:09.539Z,9.20
2024-04-14T18:30:36.951Z,8.43
2024-04-14T18:33:05.582Z,7.05
2024-04-14T18:35:32.758Z,7.38
2024-04-14T18:37:59.772Z,6.43
2024-04-14T18:40:26.986Z,7.18
2024-04-14T18:42:54.130Z,7.10
2024-04-14T18:45:21.234Z,6.82
2024-04-14T18:47:48.350Z,6.32
2024-04-14T18:50:15.675Z,6.20
2024-04-14T18:52:42.941Z,8.00
2024-04-14T18:55:10.065Z,9.43
2024-04-14T18:57:37.222Z,8.93
2024-04-14T19:00:04.704Z,8.30
2024-04-14T19:02:31.760Z,7.75
2024-04-14T19:04:58.802Z,6.93
2024-04-14T19:07:26.744Z,6.93
2024-04-14T19:09:53.840Z,5.78
2024-04-14T19:12:20.965Z,5.18
2024-04-14T19:14:47.983Z,5.20
2024-04-14T19:17:17.301Z,5.53
2024-04-14T19:19:44.506Z,5.70
2024-04-14T19:22:11.547Z,5.43
2024-04-14T19:24:38.844Z,6.25
2024-04-14T19:27:06.028Z,8.18
2024-04-14T19:29:33.141Z,8.18
2024-04-14T19:32:00.285Z,7.85
2024-04-14T19:34:27.340Z,8.32
2024-04-14T19:36:55.567Z,9.23
2024-04-14T19:39:22.682Z,10.93
2024-04-14T19:41:49.755Z,12.40
2024-04-14T19:44:16.787Z,11.07
2024-04-14T19:46:44.006Z,10.45
2024-04-14T19:49:11.256Z,9.45
2024-04-14T19:51:39.335Z,7.65
2024-04-14T19:54:06.367Z,7.28
2024-04-14T19:56:33.471Z,12.50
2024-04-14T19:59:00.496Z,14.80
2024-04-14T20:01:27.752Z,14.80
2024-04-14T20:03:55.005Z,12.32
2024-04-14T20:06:22.239Z,10.20
2024-04-14T20:08:49.304Z,7.53
2024-04-14T20:11:16.365Z,6.90
2024-04-14T20:13:43.421Z,5.75
2024-04-14T20:16:10.641Z,5.28
2024-04-14T20:18:37.933Z,4.53
2024-04-14T20:21:06.572Z,4.38
2024-04-14T20:23:34.596Z,4.10
2024-04-14T20:26:02.100Z,5.43
2024-04-14T20:28:29.139Z,6.53
2024-04-14T20:30:56.183Z,8.02
2024-04-14T20:33:23.468Z,13.02
2024-04-14T20:35:58.238Z,13.95
2024-04-14T20:38:26.136Z,14.82
2024-04-14T20:40:56.786Z,12.10
2024-04-14T20:43:23.811Z,9.80
2024-04-14T20:45:51.176Z,8.88
2024-04-14T20:48:18.454Z,9.20
2024-04-14T20:50:45.831Z,11.50
2024-04-14T20:53:12.891Z,9.48
2024-04-14T20:55:40.817Z,7.60
2024-04-14T20:58:07.986Z,7.15
2024-04-14T21:00:41.548Z,6.50
2024-04-14T21:03:08.900Z,5.65
2024-04-14T21:05:36.046Z,5.03
2024-04-14T21:08:03.404Z,5.72
2024-04-14T21:10:31.934Z,6.55
2024-04-14T21:12:59.074Z,6.13
2024-04-14T21:15:31.815Z,5.57
2024-04-14T21:17:59.036Z,6.47
2024-04-14T21:20:26.397Z,4.80
2024-04-14T21:22:53.449Z,5.60
2024-04-14T21:25:20.513Z,5.63
2024-04-14T21:27:47.714Z,4.85
2024-04-14T21:30:14.838Z,5.47
2024-04-14T21:32:41.926Z,5.43
2024-04-14T21:35:09.199Z,5.43
2024-04-14T21:37:36.350Z,5.63
2024-04-14T21:40:03.493Z,5.68
2024-04-14T21:42:30.601Z,6.18
2024-04-14T21:44:57.909Z,5.97
2024-04-14T21:47:25.076Z,6.78
2024-04-14T21:49:56.256Z,5.95
2024-04-14T21:52:23.292Z,5.57
2024-04-14T21:54:53.482Z,4.40
2024-04-14T21:57:20.637Z,4.20
2024-04-14T21:59:47.699Z,4.03
2024-04-14T22:02:14.779Z,4.10
2024-04-14T22:04:41.948Z,4.75
2024-04-14T22:07:09.111Z,4.07
2024-04-14T22:09:36.235Z,3.50
2024-04-14T22:12:03.422Z,4.25
2024-04-14T22:14:30.446Z,4.00
2024-04-14T22:16:57.536Z,3.72
2024-04-14T22:19:24.828Z,3.75
2024-04-14T22:21:51.959Z,3.67
2024-04-14T22:24:19.474Z,3.80
2024-04-14T22:26:46.510Z,3.65
2024-04-14T22:29:14.173Z,4.03
2024-04-14T22:31:41.529Z,3.60
2024-04-14T22:34:08.594Z,3.72
2024-04-14T22:36:36.048Z,3.33
2024-04-14T22:39:03.780Z,3.65
2024-04-14T22:41:30.833Z,3.63
2024-04-14T22:43:58.001Z,3.45
2024-04-14T22:46:25.176Z,3.55
2024-04-14T22:48:52.300Z,3.53
2024-04-14T22:51:19.366Z,3.05
2024-04-14T22:53:51.913Z,3.20
2024-04-14T22:56:19.486Z,3.35
2024-04-14T22:58:46.752Z,3.20
2024-04-14T23:01:13.923Z,3.55
2024-04-14T23:03:41.592Z,3.28
2024-04-14T23:06:12.265Z,3.40
2024-04-14T23:08:39.339Z,3.03
2024-04-14T23:11:06.442Z,3.60
2024-04-14T23:13:33.507Z,3.70
2024-04-14T23:16:01.432Z,3.33
2024-04-14T23:18:28.600Z,2.97
2024-04-14T23:20:56.260Z,3.38
2024-04-14T23:23:23.307Z,3.63
2024-04-14T23:25:51.139Z,3.28
2024-04-14T23:28:18.296Z,2.88
2024-04-14T23:30:45.396Z,3.30
2024-04-14T23:33:12.512Z,3.22
2024-04-14T23:35:40.010Z,3.63
2024-04-14T23:38:07.113Z,3.25
2024-04-14T23:40:34.253Z,3.60
2024-04-14T23:43:01.640Z,3.47
2024-04-14T23:45:29.101Z,3.72
2024-04-14T23:47:56.323Z,4.00
2024-04-14T23:50:23.438Z,3.47
2024-04-14T23:52:50.488Z,3.65
2024-04-14T23:55:17.611Z,3.47
2024-04-14T23:57:44.768Z,3.55
